createdAt,value
2016-07-25T00:00:34.145Z,1007.99
2016-07-25T00:01:34.092Z,1008.03
2016-07-25T00:02:34.060Z,1007.99
2016-07-25T00:03:34.051Z,1007.97
2016-07-25T00:04:34.090Z,1007.99
2016-07-25T00:05:34.031Z,1007.99
2016-07-25T00:06:33.984Z,1007.99
2016-07-25T00:07:33.922Z,1007.95
2016-07-25T00:08:33.850Z,1007.99
2016-07-25T00:09:33.959Z,1007.97
2016-07-25T00:10:33.892Z,1007.98
2016-07-25T00:11:33.757Z,1007.96
2016-07-25T00:12:33.843Z,1007.95
2016-07-25T00:13:33.785Z,1007.99
2016-07-25T00:14:33.794Z,1007.97
2016-07-25T00:15:33.861Z,1007.99
2016-07-25T00:16:33.785Z,1008
2016-07-25T00:17:33.818Z,1008
2016-07-25T00:18:33.774Z,1008.02
2016-07-25T00:19:33.723Z,1008.03
2016-07-25T00:20:33.823Z,1008.03
2016-07-25T00:21:33.769Z,1008.04
2016-07-25T00:22:33.632Z,1008.03
2016-07-25T00:23:33.592Z,1008.02
2016-07-25T00:24:33.623Z,1008.02
2016-07-25T00:25:33.609Z,1008.02
2016-07-25T00:26:33.478Z,1008
2016-07-25T00:27:33.522Z,1008.02
2016-07-25T00:28:33.524Z,1008.03
2016-07-25T00:29:33.487Z,1008
2016-07-25T00:30:33.673Z,1008.04
2016-07-25T00:31:33.479Z,1008
2016-07-25T00:32:33.562Z,1008.01
2016-07-25T00:33:33.426Z,1008.01
2016-07-25T00:34:33.480Z,1008
2016-07-25T00:35:33.505Z,1008.03
2016-07-25T00:36:33.395Z,1008.05
2016-07-25T00:37:33.384Z,1008.04
2016-07-25T00:38:33.415Z,1008.05
2016-07-25T00:39:33.308Z,1008.03
2016-07-25T00:40:33.324Z,1008.01
2016-07-25T00:41:33.256Z,1008.06
2016-07-25T00:42:33.240Z,1008.03
2016-07-25T00:43:33.226Z,1008.03
2016-07-25T00:44:33.212Z,1008.07
2016-07-25T00:45:33.196Z,1008.07
2016-07-25T00:46:33.182Z,1008.05
2016-07-25T00:47:33.166Z,1008.05
2016-07-25T00:48:33.152Z,1008.07
2016-07-25T00:49:33.137Z,1008.04
2016-07-25T00:50:33.122Z,1008.05
2016-07-25T00:51:33.107Z,1008.04
2016-07-25T00:52:33.092Z,1008.03
2016-07-25T00:53:33.076Z,1007.99
2016-07-25T00:54:33.062Z,1008
2016-07-25T00:55:33.047Z,1008.01
2016-07-25T00:56:33.034Z,1007.99
2016-07-25T00:57:33.017Z,1007.97
2016-07-25T00:58:33.003Z,1007.96
2016-07-25T00:59:32.989Z,1007.99
2016-07-25T01:00:32.973Z,1007.96
2016-07-25T01:01:32.959Z,1007.97
2016-07-25T01:02:32.944Z,1007.96
2016-07-25T01:03:32.929Z,1007.95
2016-07-25T01:04:32.914Z,1007.95
2016-07-25T01:05:32.900Z,1007.99
2016-07-25T01:06:32.884Z,1007.98
2016-07-25T01:07:32.871Z,1007.96
2016-07-25T01:08:32.854Z,1008
2016-07-25T01:09:32.839Z,1007.99
2016-07-25T01:10:32.825Z,1008.02
2016-07-25T01:11:32.811Z,1008.08
2016-07-25T01:12:32.796Z,1008.04
2016-07-25T01:13:32.780Z,1008.07
2016-07-25T01:14:32.766Z,1008.04
2016-07-25T01:15:32.752Z,1008.08
2016-07-25T01:16:32.741Z,1008.08
2016-07-25T01:17:32.721Z,1008.07
2016-07-25T01:18:32.707Z,1008.04
2016-07-25T01:19:32.691Z,1008.02
2016-07-25T01:20:32.677Z,1008.02
2016-07-25T01:21:32.662Z,1008.01
2016-07-25T01:22:32.646Z,1008.01
2016-07-25T01:23:32.632Z,1008.03
2016-07-25T01:24:32.618Z,1007.99
2016-07-25T01:25:32.601Z,1007.99
2016-07-25T01:26:32.588Z,1007.96
2016-07-25T01:27:32.571Z,1007.98
2016-07-25T01:28:32.557Z,1007.99
2016-07-25T01:29:32.542Z,1008
2016-07-25T01:30:32.529Z,1008
2016-07-25T01:31:32.513Z,1007.99
2016-07-25T01:32:32.499Z,1008.02
2016-07-25T01:33:32.483Z,1008.02
2016-07-25T01:34:32.470Z,1008.02
2016-07-25T01:35:32.452Z,1008.04
2016-07-25T01:36:32.439Z,1008.02
2016-07-25T01:37:32.424Z,1008
2016-07-25T01:38:32.409Z,1008.01
2016-07-25T01:39:32.395Z,1008.06
2016-07-25T01:40:32.379Z,1008.06
2016-07-25T01:41:32.364Z,1008.05
2016-07-25T01:42:32.348Z,1008.05
2016-07-25T01:43:32.334Z,1008.08
2016-07-25T01:44:32.319Z,1008.09
2016-07-25T01:45:32.305Z,1008.06
2016-07-25T01:46:32.288Z,1008.09
2016-07-25T01:47:32.275Z,1008.05
2016-07-25T01:48:32.258Z,1008.03
2016-07-25T01:49:32.244Z,1008.05
2016-07-25T01:50:32.228Z,1008.07
2016-07-25T01:51:32.213Z,1008.04
2016-07-25T01:52:32.198Z,1008.06
2016-07-25T01:53:32.184Z,1008
2016-07-25T01:54:32.168Z,1008.02
2016-07-25T01:55:32.157Z,1008.05
2016-07-25T01:56:32.139Z,1008.02
2016-07-25T01:57:32.123Z,1008.02
2016-07-25T01:58:32.108Z,1008.04
2016-07-25T01:59:32.091Z,1008.05
2016-07-25T02:00:32.078Z,1008.08
2016-07-25T02:01:32.066Z,1008.07
2016-07-25T02:02:32.104Z,1008.1
2016-07-25T02:03:32.031Z,1008.08
2016-07-25T02:04:32.023Z,1008.06
2016-07-25T02:05:32.017Z,1008.03
2016-07-25T02:06:32.007Z,1008.05
2016-07-25T02:07:31.972Z,1008.05
2016-07-25T02:08:31.956Z,1008.04
2016-07-25T02:09:31.941Z,1008.04
2016-07-25T02:10:31.927Z,1008.02
2016-07-25T02:11:31.909Z,1008
2016-07-25T02:12:31.895Z,1008
2016-07-25T02:13:31.888Z,1007.99
2016-07-25T02:14:31.880Z,1007.98
2016-07-25T02:15:31.902Z,1007.97
2016-07-25T02:16:31.845Z,1008
2016-07-25T02:17:31.909Z,1007.97
2016-07-25T02:18:31.828Z,1007.97
2016-07-25T02:19:31.847Z,1007.96
2016-07-25T02:20:31.775Z,1007.92
2016-07-25T02:21:31.757Z,1007.95
2016-07-25T02:22:31.801Z,1007.95
2016-07-25T02:23:31.793Z,1007.93
2016-07-25T02:24:31.722Z,1007.92
2016-07-25T02:25:31.778Z,1007.9
2016-07-25T02:26:31.775Z,1007.92
2016-07-25T02:27:31.726Z,1007.89
2016-07-25T02:28:31.694Z,1007.94
2016-07-25T02:29:31.718Z,1007.92
2016-07-25T02:30:31.730Z,1007.93
2016-07-25T02:31:31.620Z,1007.96
2016-07-25T02:32:31.639Z,1007.93
2016-07-25T02:33:31.636Z,1007.93
2016-07-25T02:34:31.641Z,1007.92
2016-07-25T02:35:31.553Z,1007.96
2016-07-25T02:36:31.585Z,1007.91
2016-07-25T02:37:31.581Z,1007.92
2016-07-25T02:38:31.500Z,1007.92
2016-07-25T02:39:31.532Z,1007.89
2016-07-25T02:40:31.473Z,1007.89
2016-07-25T02:41:31.471Z,1007.91
2016-07-25T02:42:31.437Z,1007.93
2016-07-25T02:43:31.439Z,1007.94
2016-07-25T02:44:31.412Z,1007.92
2016-07-25T02:45:31.420Z,1007.93
2016-07-25T02:46:31.391Z,1007.9
2016-07-25T02:47:31.416Z,1007.94
2016-07-25T02:48:31.406Z,1007.91
2016-07-25T02:49:31.347Z,1007.93
2016-07-25T02:50:31.336Z,1007.89
2016-07-25T02:51:31.319Z,1007.88
2016-07-25T02:52:31.296Z,1007.9
2016-07-25T02:53:31.307Z,1007.9
2016-07-25T02:54:31.327Z,1007.88
2016-07-25T02:55:31.352Z,1007.88
2016-07-25T02:56:31.223Z,1007.9
2016-07-25T02:57:31.207Z,1007.87
2016-07-25T02:58:31.283Z,1007.91
2016-07-25T02:59:31.258Z,1007.88
2016-07-25T03:00:31.165Z,1007.86
2016-07-25T03:01:31.166Z,1007.84
2016-07-25T03:02:31.196Z,1007.89
2016-07-25T03:03:31.161Z,1007.86
2016-07-25T03:04:31.185Z,1007.88
2016-07-25T03:05:31.181Z,1007.87
2016-07-25T03:06:31.096Z,1007.9
2016-07-25T03:07:31.116Z,1007.86
2016-07-25T03:08:31.136Z,1007.86
2016-07-25T03:09:31.134Z,1007.86
2016-07-25T03:10:31.056Z,1007.9
2016-07-25T03:11:31.102Z,1007.91
2016-07-25T03:12:31.023Z,1007.92
2016-07-25T03:13:30.999Z,1007.9
2016-07-25T03:14:31.005Z,1007.92
2016-07-25T03:15:31.054Z,1007.92
2016-07-25T03:16:30.936Z,1007.89
2016-07-25T03:17:30.899Z,1007.9
2016-07-25T03:18:30.944Z,1007.9
2016-07-25T03:19:30.916Z,1007.89
2016-07-25T03:20:30.857Z,1007.91
2016-07-25T03:21:30.907Z,1007.92
2016-07-25T03:22:30.821Z,1007.87
2016-07-25T03:23:30.823Z,1007.9
2016-07-25T03:24:30.817Z,1007.91
2016-07-25T03:25:30.831Z,1007.92
2016-07-25T03:26:30.801Z,1007.94
2016-07-25T03:27:30.803Z,1007.92
2016-07-25T03:28:30.803Z,1007.93
2016-07-25T03:29:30.807Z,1007.93
2016-07-25T03:30:30.789Z,1007.96
2016-07-25T03:31:30.717Z,1007.98
2016-07-25T03:32:30.745Z,1007.96
2016-07-25T03:33:30.710Z,1007.96
2016-07-25T03:34:30.685Z,1007.93
2016-07-25T03:35:30.711Z,1007.95
2016-07-25T03:36:30.697Z,1007.94
2016-07-25T03:37:30.657Z,1007.94
2016-07-25T03:38:30.599Z,1007.96
2016-07-25T03:39:30.576Z,1007.94
2016-07-25T03:40:30.621Z,1007.91
2016-07-25T03:41:30.543Z,1007.95
2016-07-25T03:42:30.583Z,1007.98
2016-07-25T03:43:30.611Z,1007.93
2016-07-25T03:44:30.482Z,1007.95
2016-07-25T03:45:30.496Z,1007.93
2016-07-25T03:46:30.509Z,1007.94
2016-07-25T03:47:30.445Z,1007.95
2016-07-25T03:48:30.479Z,1007.99
2016-07-25T03:49:30.411Z,1008
2016-07-25T03:50:30.501Z,1008.01
2016-07-25T03:51:30.373Z,1008.04
2016-07-25T03:52:30.356Z,1008.01
2016-07-25T03:53:30.341Z,1007.99
2016-07-25T03:54:30.325Z,1008
2016-07-25T03:55:30.314Z,1007.98
2016-07-25T03:56:30.293Z,1007.95
2016-07-25T03:57:30.278Z,1008
2016-07-25T03:58:30.263Z,1008
2016-07-25T03:59:30.246Z,1007.99
2016-07-25T04:00:30.231Z,1007.97
2016-07-25T04:01:30.215Z,1008
2016-07-25T04:02:30.200Z,1007.97
2016-07-25T04:03:30.184Z,1007.99
2016-07-25T04:04:30.168Z,1007.99
2016-07-25T04:05:30.152Z,1008.01
2016-07-25T04:06:30.137Z,1007.99
2016-07-25T04:07:30.121Z,1008.01
2016-07-25T04:08:30.106Z,1008.03
2016-07-25T04:09:30.092Z,1008.06
2016-07-25T04:10:30.076Z,1008.05
2016-07-25T04:11:30.059Z,1008.02
2016-07-25T04:12:30.043Z,1008.02
2016-07-25T04:13:30.028Z,1008.05
2016-07-25T04:14:30.013Z,1008.05
2016-07-25T04:15:29.997Z,1008.03
2016-07-25T04:16:29.981Z,1008.06
2016-07-25T04:17:29.966Z,1008.07
2016-07-25T04:18:29.949Z,1008.04
2016-07-25T04:19:29.935Z,1008.06
2016-07-25T04:20:29.918Z,1008.1
2016-07-25T04:21:29.903Z,1008.1
2016-07-25T04:22:29.887Z,1008.09
2016-07-25T04:23:29.872Z,1008.08
2016-07-25T04:24:29.858Z,1008.07
2016-07-25T04:25:29.840Z,1008.09
2016-07-25T04:26:29.824Z,1008.11
2016-07-25T04:27:29.810Z,1008.08
2016-07-25T04:28:29.794Z,1008.13
2016-07-25T04:29:29.777Z,1008.12
2016-07-25T04:30:29.763Z,1008.11
2016-07-25T04:31:29.747Z,1008.12
2016-07-25T04:32:29.731Z,1008.1
2016-07-25T04:33:29.717Z,1008.11
2016-07-25T04:34:29.701Z,1008.14
2016-07-25T04:35:29.686Z,1008.15
2016-07-25T04:36:29.671Z,1008.12
2016-07-25T04:37:29.655Z,1008.12
2016-07-25T04:38:29.639Z,1008.15
2016-07-25T04:39:29.629Z,1008.15
2016-07-25T04:40:29.609Z,1008.13
2016-07-25T04:41:29.594Z,1008.11
2016-07-25T04:42:29.581Z,1008.15
2016-07-25T04:43:29.563Z,1008.14
2016-07-25T04:44:29.548Z,1008.16
2016-07-25T04:45:29.532Z,1008.16
2016-07-25T04:46:29.521Z,1008.15
2016-07-25T04:47:29.501Z,1008.17
2016-07-25T04:48:29.488Z,1008.18
2016-07-25T04:49:29.473Z,1008.19
2016-07-25T04:50:29.457Z,1008.17
2016-07-25T04:51:29.439Z,1008.22
2016-07-25T04:52:29.426Z,1008.16
2016-07-25T04:53:29.410Z,1008.2
2016-07-25T04:54:29.395Z,1008.24
2016-07-25T04:55:29.380Z,1008.24
2016-07-25T04:56:29.366Z,1008.25
2016-07-25T04:57:29.351Z,1008.31
2016-07-25T04:58:29.333Z,1008.29
2016-07-25T04:59:29.319Z,1008.29
2016-07-25T05:00:29.304Z,1008.28
2016-07-25T05:01:29.295Z,1008.34
2016-07-25T05:02:29.273Z,1008.34
2016-07-25T05:03:29.259Z,1008.36
2016-07-25T05:04:29.267Z,1008.3
2016-07-25T05:05:29.228Z,1008.31
2016-07-25T05:06:29.213Z,1008.3
2016-07-25T05:07:29.199Z,1008.27
2016-07-25T05:08:29.183Z,1008.28
2016-07-25T05:09:29.168Z,1008.28
2016-07-25T05:10:29.152Z,1008.29
2016-07-25T05:11:29.139Z,1008.3
2016-07-25T05:12:29.122Z,1008.3
2016-07-25T05:13:29.155Z,1008.3
2016-07-25T05:14:29.093Z,1008.31
2016-07-25T05:15:29.080Z,1008.27
2016-07-25T05:16:29.063Z,1008.32
2016-07-25T05:17:29.049Z,1008.33
2016-07-25T05:18:29.033Z,1008.32
2016-07-25T05:19:29.019Z,1008.32
2016-07-25T05:20:29.005Z,1008.34
2016-07-25T05:21:28.987Z,1008.36
2016-07-25T05:22:28.973Z,1008.33
2016-07-25T05:23:28.957Z,1008.36
2016-07-25T05:24:28.987Z,1008.37
2016-07-25T05:25:28.929Z,1008.34
2016-07-25T05:26:28.913Z,1008.34
2016-07-25T05:27:28.897Z,1008.37
2016-07-25T05:28:28.883Z,1008.35
2016-07-25T05:29:28.869Z,1008.35
2016-07-25T05:30:28.854Z,1008.37
2016-07-25T05:31:28.837Z,1008.34
2016-07-25T05:32:28.823Z,1008.35
2016-07-25T05:33:28.807Z,1008.33
2016-07-25T05:34:28.791Z,1008.33
2016-07-25T05:35:28.829Z,1008.35
2016-07-25T05:36:28.816Z,1008.38
2016-07-25T05:37:28.801Z,1008.33
2016-07-25T05:38:28.785Z,1008.39
2016-07-25T05:39:28.716Z,1008.31
2016-07-25T05:40:28.801Z,1008.36
2016-07-25T05:41:28.687Z,1008.35
2016-07-25T05:42:28.671Z,1008.37
2016-07-25T05:43:28.660Z,1008.33
2016-07-25T05:44:28.641Z,1008.36
2016-07-25T05:45:28.625Z,1008.35
2016-07-25T05:46:28.611Z,1008.35
2016-07-25T05:47:28.597Z,1008.34
2016-07-25T05:48:28.581Z,1008.4
2016-07-25T05:49:28.640Z,1008.41
2016-07-25T05:50:28.551Z,1008.39
2016-07-25T05:51:28.536Z,1008.4
2016-07-25T05:52:28.522Z,1008.41
2016-07-25T05:53:28.507Z,1008.41
2016-07-25T05:54:28.553Z,1008.41
2016-07-25T05:55:28.485Z,1008.38
2016-07-25T05:56:28.587Z,1008.42
2016-07-25T05:57:28.495Z,1008.42
2016-07-25T05:58:28.487Z,1008.41
2016-07-25T05:59:28.595Z,1008.44
2016-07-25T06:00:28.552Z,1008.44
2016-07-25T06:01:28.515Z,1008.36
2016-07-25T06:02:28.492Z,1008.41
2016-07-25T06:03:28.455Z,1008.43
2016-07-25T06:04:28.526Z,1008.41
2016-07-25T06:05:28.511Z,1008.46
2016-07-25T06:06:28.351Z,1008.46
2016-07-25T06:07:28.420Z,1008.48
2016-07-25T06:08:28.343Z,1008.45
2016-07-25T06:09:28.331Z,1008.47
2016-07-25T06:10:28.317Z,1008.47
2016-07-25T06:11:28.303Z,1008.5
2016-07-25T06:12:28.236Z,1008.47
2016-07-25T06:13:28.224Z,1008.48
2016-07-25T06:14:28.209Z,1008.46
2016-07-25T06:15:28.196Z,1008.49
2016-07-25T06:16:28.288Z,1008.49
2016-07-25T06:17:28.224Z,1008.52
2016-07-25T06:18:28.207Z,1008.54
2016-07-25T06:19:28.196Z,1008.54
2016-07-25T06:20:28.243Z,1008.57
2016-07-25T06:21:28.173Z,1008.56
2016-07-25T06:22:28.279Z,1008.56
2016-07-25T06:23:28.208Z,1008.56
2016-07-25T06:24:28.128Z,1008.59
2016-07-25T06:25:28.175Z,1008.62
2016-07-25T06:26:28.090Z,1008.59
2016-07-25T06:27:28.093Z,1008.64
2016-07-25T06:28:28.181Z,1008.63
2016-07-25T06:29:28.082Z,1008.56
2016-07-25T06:30:28.050Z,1008.6
2016-07-25T06:31:28.002Z,1008.59
2016-07-25T06:32:28.057Z,1008.58
2016-07-25T06:33:28.009Z,1008.59
2016-07-25T06:34:28.029Z,1008.62
2016-07-25T06:35:27.985Z,1008.6
2016-07-25T06:36:28.060Z,1008.62
2016-07-25T06:37:28.145Z,1008.66
2016-07-25T06:38:28.011Z,1008.63
2016-07-25T06:39:28.022Z,1008.64
2016-07-25T06:40:28.010Z,1008.66
2016-07-25T06:41:28.027Z,1008.63
2016-07-25T06:42:27.985Z,1008.66
2016-07-25T06:43:27.862Z,1008.66
2016-07-25T06:44:27.866Z,1008.7
2016-07-25T06:45:28.207Z,1008.68
2016-07-25T06:46:28.152Z,1008.67
2016-07-25T06:47:28.110Z,1008.62
2016-07-25T06:48:28.119Z,1008.62
2016-07-25T06:49:27.986Z,1008.62
2016-07-25T06:50:27.919Z,1008.62
2016-07-25T06:51:27.718Z,1008.62
2016-07-25T06:52:27.755Z,1008.66
2016-07-25T06:53:28.130Z,1008.64
2016-07-25T06:54:27.861Z,1008.62
2016-07-25T06:55:27.951Z,1008.65
2016-07-25T06:56:27.912Z,1008.66
2016-07-25T06:57:27.896Z,1008.67
2016-07-25T06:58:27.940Z,1008.66
2016-07-25T06:59:27.835Z,1008.66
2016-07-25T07:00:27.845Z,1008.68
2016-07-25T07:01:27.995Z,1008.62
2016-07-25T07:02:27.747Z,1008.61
2016-07-25T07:03:27.852Z,1008.67
2016-07-25T07:04:27.853Z,1008.59
2016-07-25T07:05:27.732Z,1008.6
2016-07-25T07:06:27.950Z,1008.61
2016-07-25T07:07:27.685Z,1008.65
2016-07-25T07:08:27.707Z,1008.56
2016-07-25T07:09:27.711Z,1008.51
2016-07-25T07:10:27.767Z,1008.56
2016-07-25T07:11:27.852Z,1008.56
2016-07-25T07:12:27.859Z,1008.53
2016-07-25T07:13:27.855Z,1008.55
2016-07-25T07:14:27.783Z,1008.55
2016-07-25T07:15:27.837Z,1008.53
2016-07-25T07:16:27.957Z,1008.51
2016-07-25T07:17:27.772Z,1008.56
2016-07-25T07:18:27.714Z,1008.58
2016-07-25T07:19:27.622Z,1008.53
2016-07-25T07:20:27.678Z,1008.57
2016-07-25T07:21:27.700Z,1008.59
2016-07-25T07:22:27.534Z,1008.54
2016-07-25T07:23:27.672Z,1008.57
2016-07-25T07:24:27.626Z,1008.53
2016-07-25T07:25:27.555Z,1008.58
2016-07-25T07:26:27.529Z,1008.56
2016-07-25T07:27:27.714Z,1008.52
2016-07-25T07:28:27.629Z,1008.52
2016-07-25T07:29:27.667Z,1008.54
2016-07-25T07:30:27.568Z,1008.51
2016-07-25T07:31:27.562Z,1008.51
2016-07-25T07:32:27.614Z,1008.5
2016-07-25T07:33:27.642Z,1008.54
2016-07-25T07:34:27.612Z,1008.53
2016-07-25T07:35:27.561Z,1008.59
2016-07-25T07:36:27.573Z,1008.56
2016-07-25T07:37:27.585Z,1008.54
2016-07-25T07:38:27.477Z,1008.52
2016-07-25T07:39:27.505Z,1008.56
2016-07-25T07:40:27.733Z,1008.53
2016-07-25T07:41:27.452Z,1008.58
2016-07-25T07:42:27.517Z,1008.57
2016-07-25T07:43:27.510Z,1008.5
2016-07-25T07:44:27.438Z,1008.5
2016-07-25T07:45:27.469Z,1008.49
2016-07-25T07:46:27.451Z,1008.52
2016-07-25T07:47:27.386Z,1008.52
2016-07-25T07:48:27.455Z,1008.45
2016-07-25T07:49:27.478Z,1008.5
2016-07-25T07:50:27.466Z,1008.49
2016-07-25T07:51:27.412Z,1008.48
2016-07-25T07:52:27.358Z,1008.53
2016-07-25T07:53:27.308Z,1008.46
2016-07-25T07:54:27.367Z,1008.48
2016-07-25T07:55:27.427Z,1008.51
2016-07-25T07:56:27.397Z,1008.54
2016-07-25T07:57:27.396Z,1008.53
2016-07-25T07:58:27.304Z,1008.49
2016-07-25T07:59:27.508Z,1008.58
2016-07-25T08:00:27.450Z,1008.51
2016-07-25T08:01:27.656Z,1008.52
2016-07-25T08:02:27.436Z,1008.53
2016-07-25T08:04:27.262Z,1008.62
2016-07-25T08:05:27.351Z,1008.55
2016-07-25T08:06:27.256Z,1008.63
2016-07-25T08:07:27.280Z,1008.6
2016-07-25T08:08:27.258Z,1008.59
2016-07-25T08:09:27.265Z,1008.6
2016-07-25T08:10:27.260Z,1008.63
2016-07-25T08:11:27.312Z,1008.65
2016-07-25T08:12:27.303Z,1008.61
2016-07-25T08:13:27.236Z,1008.65
2016-07-25T08:14:27.246Z,1008.64
2016-07-25T08:15:27.259Z,1008.62
2016-07-25T08:16:27.277Z,1008.63
2016-07-25T08:17:27.176Z,1008.59
2016-07-25T08:18:27.432Z,1008.6
2016-07-25T08:19:27.195Z,1008.56
2016-07-25T08:20:27.138Z,1008.57
2016-07-25T08:21:27.227Z,1008.61
2016-07-25T08:22:27.152Z,1008.63
2016-07-25T08:23:27.195Z,1008.59
2016-07-25T08:24:27.233Z,1008.65
2016-07-25T08:25:27.155Z,1008.57
2016-07-25T08:26:27.037Z,1008.59
2016-07-25T08:27:27.172Z,1008.59
2016-07-25T08:28:27.053Z,1008.61
2016-07-25T08:29:27.101Z,1008.63
2016-07-25T08:30:27.144Z,1008.55
2016-07-25T08:31:27.094Z,1008.59
2016-07-25T08:32:27.087Z,1008.56
2016-07-25T08:33:27.086Z,1008.53
2016-07-25T08:34:26.953Z,1008.59
2016-07-25T08:35:26.975Z,1008.58
2016-07-25T08:36:27.026Z,1008.62
2016-07-25T08:37:27.042Z,1008.6
2016-07-25T08:38:27.048Z,1008.6
2016-07-25T08:39:27.017Z,1008.58
2016-07-25T08:40:27.038Z,1008.6
2016-07-25T08:41:26.986Z,1008.6
2016-07-25T08:42:26.965Z,1008.6
2016-07-25T08:43:26.922Z,1008.66
2016-07-25T08:44:26.962Z,1008.64
2016-07-25T08:45:27.153Z,1008.63
2016-07-25T08:46:26.923Z,1008.64
2016-07-25T08:47:27.021Z,1008.66
2016-07-25T08:48:26.894Z,1008.67
2016-07-25T08:49:26.899Z,1008.59
2016-07-25T08:50:26.838Z,1008.58
2016-07-25T08:51:26.816Z,1008.54
2016-07-25T08:52:26.877Z,1008.61
2016-07-25T08:53:26.820Z,1008.58
2016-07-25T08:54:26.858Z,1008.6
2016-07-25T08:55:26.832Z,1008.66
2016-07-25T08:56:26.835Z,1008.64
2016-07-25T08:57:26.857Z,1008.66
2016-07-25T08:58:26.756Z,1008.55
2016-07-25T08:59:26.820Z,1008.55
2016-07-25T09:00:26.772Z,1008.55
2016-07-25T09:01:26.763Z,1008.56
2016-07-25T09:02:27.075Z,1008.58
2016-07-25T09:03:26.815Z,1008.55
2016-07-25T09:04:26.773Z,1008.56
2016-07-25T09:05:26.762Z,1008.59
2016-07-25T09:06:26.651Z,1008.58
2016-07-25T09:07:26.733Z,1008.55
2016-07-25T09:08:26.767Z,1008.61
2016-07-25T09:09:26.720Z,1008.63
2016-07-25T09:10:26.587Z,1008.56
2016-07-25T09:11:26.691Z,1008.63
2016-07-25T09:12:26.724Z,1008.61
2016-07-25T09:13:26.722Z,1008.59
2016-07-25T09:14:26.647Z,1008.63
2016-07-25T09:15:26.653Z,1008.63
2016-07-25T09:16:26.629Z,1008.61
2016-07-25T09:17:26.596Z,1008.64
2016-07-25T09:18:26.572Z,1008.59
2016-07-25T09:19:26.715Z,1008.6
2016-07-25T09:20:26.577Z,1008.64
2016-07-25T09:21:26.330Z,1008.58
2016-07-25T09:22:26.696Z,1008.56
2016-07-25T09:23:26.555Z,1008.62
2016-07-25T09:24:26.441Z,1008.61
2016-07-25T09:25:26.508Z,1008.58
2016-07-25T09:26:26.601Z,1008.57
2016-07-25T09:27:26.382Z,1008.64
2016-07-25T09:28:26.419Z,1008.61
2016-07-25T09:29:26.405Z,1008.65
2016-07-25T09:30:26.459Z,1008.59
2016-07-25T09:31:26.604Z,1008.63
2016-07-25T09:32:27.812Z,1008.59
2016-07-25T09:33:26.611Z,1008.49
2016-07-25T09:34:26.580Z,1008.57
2016-07-25T09:35:26.478Z,1008.56
2016-07-25T09:36:26.533Z,1008.56
2016-07-25T09:37:26.424Z,1008.56
2016-07-25T09:38:26.465Z,1008.5
2016-07-25T09:39:26.521Z,1008.51
2016-07-25T09:40:26.328Z,1008.49
2016-07-25T09:41:26.427Z,1008.44
2016-07-25T09:42:26.484Z,1008.46
2016-07-25T09:43:26.377Z,1008.47
2016-07-25T09:44:26.344Z,1008.44
2016-07-25T09:45:26.451Z,1008.5
2016-07-25T09:46:26.423Z,1008.48
2016-07-25T09:47:26.364Z,1008.53
2016-07-25T09:48:26.359Z,1008.42
2016-07-25T09:49:26.260Z,1008.5
2016-07-25T09:50:26.301Z,1008.49
2016-07-25T09:51:26.200Z,1008.44
2016-07-25T09:52:26.408Z,1008.49
2016-07-25T09:53:26.360Z,1008.52
2016-07-25T09:54:26.391Z,1008.5
2016-07-25T09:55:26.360Z,1008.46
2016-07-25T09:56:26.471Z,1008.51
2016-07-25T09:57:26.407Z,1008.58
2016-07-25T09:58:26.347Z,1008.54
2016-07-25T09:59:26.384Z,1008.45
2016-07-25T10:00:26.253Z,1008.44
2016-07-25T10:01:26.375Z,1008.45
2016-07-25T10:02:26.350Z,1008.46
2016-07-25T10:03:26.360Z,1008.46
2016-07-25T10:04:26.456Z,1008.48
2016-07-25T10:05:26.370Z,1008.45
2016-07-25T10:06:26.292Z,1008.49
2016-07-25T10:07:26.277Z,1008.49
2016-07-25T10:08:26.416Z,1008.44
2016-07-25T10:09:26.568Z,1008.41
2016-07-25T10:10:26.259Z,1008.45
2016-07-25T10:11:26.286Z,1008.47
2016-07-25T10:12:26.339Z,1008.45
2016-07-25T10:13:26.269Z,1008.43
2016-07-25T10:14:26.282Z,1008.48
2016-07-25T10:15:26.340Z,1008.41
2016-07-25T10:16:26.303Z,1008.39
2016-07-25T10:17:26.318Z,1008.38
2016-07-25T10:18:26.351Z,1008.4
2016-07-25T10:19:26.351Z,1008.4
2016-07-25T10:20:26.303Z,1008.36
2016-07-25T10:21:26.339Z,1008.34
2016-07-25T10:22:26.422Z,1008.39
2016-07-25T10:23:26.176Z,1008.39
2016-07-25T10:24:26.279Z,1008.37
2016-07-25T10:25:26.420Z,1008.44
2016-07-25T10:26:26.085Z,1008.33
2016-07-25T10:27:26.080Z,1008.33
2016-07-25T10:28:26.077Z,1008.33
2016-07-25T10:29:26.075Z,1008.31
2016-07-25T10:30:26.071Z,1008.35
2016-07-25T10:31:26.141Z,1008.44
2016-07-25T10:32:26.063Z,1008.38
2016-07-25T10:33:26.143Z,1008.35
2016-07-25T10:34:26.060Z,1008.29
2016-07-25T10:35:26.055Z,1008.34
2016-07-25T10:36:26.069Z,1008.44
2016-07-25T10:37:26.051Z,1008.29
2016-07-25T10:38:26.048Z,1008.28
2016-07-25T10:39:26.046Z,1008.33
2016-07-25T10:40:26.043Z,1008.32
2016-07-25T10:41:26.040Z,1008.27
2016-07-25T10:42:26.035Z,1008.29
2016-07-25T10:43:26.034Z,1008.23
2016-07-25T10:44:26.031Z,1008.27
2016-07-25T10:45:26.030Z,1008.26
2016-07-25T10:46:26.025Z,1008.26
2016-07-25T10:47:26.021Z,1008.2
2016-07-25T10:48:26.025Z,1008.1
2016-07-25T10:49:26.118Z,1008.29
2016-07-25T10:50:26.170Z,1008.3
2016-07-25T10:51:26.125Z,1008.26
2016-07-25T10:52:26.107Z,1008.29
2016-07-25T10:53:26.147Z,1008.35
2016-07-25T10:54:26.051Z,1008.29
2016-07-25T10:55:26.211Z,1008.21
2016-07-25T10:56:26.159Z,1008.25
2016-07-25T10:57:26.114Z,1008.24
2016-07-25T10:58:26.043Z,1008.2
2016-07-25T10:59:26.131Z,1008.18
2016-07-25T11:00:26.107Z,1008.18
2016-07-25T11:01:26.101Z,1008.17
2016-07-25T11:02:26.099Z,1008.17
2016-07-25T11:03:26.096Z,1008.21
2016-07-25T11:04:26.194Z,1008.2
2016-07-25T11:05:26.078Z,1008.17
2016-07-25T11:06:26.116Z,1008.16
2016-07-25T11:07:25.977Z,1008.15
2016-07-25T11:08:26.083Z,1008.18
2016-07-25T11:09:26.026Z,1008.16
2016-07-25T11:10:26.024Z,1008.19
2016-07-25T11:11:26.098Z,1008.12
2016-07-25T11:12:26.044Z,1008.21
2016-07-25T11:13:26.086Z,1008.15
2016-07-25T11:14:26.046Z,1008.16
2016-07-25T11:15:26.026Z,1008.13
2016-07-25T11:16:26.219Z,1008.18
2016-07-25T11:17:25.975Z,1008.18
2016-07-25T11:18:25.968Z,1008.2
2016-07-25T11:19:26.031Z,1008.14
2016-07-25T11:20:26.014Z,1008.11
2016-07-25T11:21:26.224Z,1008.13
2016-07-25T11:22:26.197Z,1008.19
2016-07-25T11:23:26.287Z,1008.14
2016-07-25T11:24:26.024Z,1008.07
2016-07-25T11:25:25.960Z,1008.12
2016-07-25T11:26:26.173Z,1008.15
2016-07-25T11:27:25.966Z,1008.14
2016-07-25T11:28:26.078Z,1008.12
2016-07-25T11:29:25.959Z,1008.16
2016-07-25T11:30:25.959Z,1008.17
2016-07-25T11:31:25.957Z,1008.15
2016-07-25T11:32:26.006Z,1008.14
2016-07-25T11:33:25.955Z,1008.12
2016-07-25T11:34:25.962Z,1008.1
2016-07-25T11:35:26.170Z,1008.09
2016-07-25T11:36:25.952Z,1008.09
2016-07-25T11:37:26.277Z,1008.08
2016-07-25T11:38:25.947Z,1008.08
2016-07-25T11:39:26.019Z,1008.14
2016-07-25T11:40:25.944Z,1008.12
2016-07-25T11:41:25.942Z,1008.09
2016-07-25T11:42:25.942Z,1008.09
2016-07-25T11:43:25.940Z,1008.09
2016-07-25T11:44:25.945Z,1008.07
2016-07-25T11:45:25.941Z,1008.09
2016-07-25T11:46:25.938Z,1008.18
2016-07-25T11:47:25.944Z,1008.18
2016-07-25T11:48:25.937Z,1008.15
2016-07-25T11:49:25.936Z,1008.08
2016-07-25T11:50:26.090Z,1008.11
2016-07-25T11:51:25.956Z,1008.2
2016-07-25T11:52:26.095Z,1008.14
2016-07-25T11:53:26.229Z,1008.13
2016-07-25T11:54:25.948Z,1008.1
2016-07-25T11:55:25.943Z,1008.14
2016-07-25T11:56:25.919Z,1008.1
2016-07-25T11:57:25.942Z,1008.06
2016-07-25T11:58:26.197Z,1008.08
2016-07-25T11:59:25.907Z,1008.14
2016-07-25T12:00:26.084Z,1008.13
2016-07-25T12:01:25.900Z,1008.09
2016-07-25T12:02:25.897Z,1008.11
2016-07-25T12:03:25.891Z,1008.18
2016-07-25T12:04:25.910Z,1008.11
2016-07-25T12:05:25.908Z,1008.1
2016-07-25T12:06:25.879Z,1008.13
2016-07-25T12:07:25.875Z,1008.12
2016-07-25T12:08:25.871Z,1008.03
2016-07-25T12:09:25.899Z,1008.07
2016-07-25T12:10:25.874Z,1008.11